createdAt,value
2023-04-18T00:00:02.159Z,102267.19
2023-04-18T00:00:15.384Z,102266.13
2023-04-18T00:00:49.352Z,102262.72
2023-04-18T00:01:03.240Z,102262.72
2023-04-18T00:01:15.911Z,102268.88
2023-04-18T00:01:29.692Z,102265.44
2023-04-18T00:01:42.933Z,102266.28
2023-04-18T00:01:55.761Z,102265.44
2023-04-18T00:02:09.177Z,102261.72
2023-04-18T00:02:23.256Z,102265.28
2023-04-18T00:02:38.541Z,102260.00
2023-04-18T00:02:53.919Z,102262.72
2023-04-18T00:03:09.761Z,102260.00
2023-04-18T00:03:23.212Z,102262.72
2023-04-18T00:03:37.155Z,102265.44
2023-04-18T00:03:50.674Z,102261.72
2023-04-18T00:04:05.120Z,102262.72
2023-04-18T00:04:18.537Z,102268.03
2023-04-18T00:04:34.070Z,102259.81
2023-04-18T00:04:47.213Z,102268.19
2023-04-18T00:04:59.951Z,102260.00
2023-04-18T00:05:12.844Z,102270.91
2023-04-18T00:05:26.251Z,102262.72
2023-04-18T00:05:40.244Z,102262.56
2023-04-18T00:05:54.211Z,102264.44
2023-04-18T00:06:07.009Z,102262.56
2023-04-18T00:06:22.234Z,102254.53
2023-04-18T00:06:35.950Z,102260.00
2023-04-18T00:06:49.954Z,102265.28
2023-04-18T00:07:02.690Z,102257.25
2023-04-18T00:07:16.590Z,102259.16
2023-04-18T00:07:29.175Z,102260.84
2023-04-18T00:07:41.752Z,102264.59
2023-04-18T00:07:55.338Z,102259.16
2023-04-18T00:08:08.854Z,102263.56
2023-04-18T00:08:21.475Z,102261.88
2023-04-18T00:08:34.380Z,102267.34
2023-04-18T00:08:46.985Z,102265.44
2023-04-18T00:08:59.656Z,102263.75
2023-04-18T00:09:12.305Z,102269.22
2023-04-18T00:09:25.309Z,102267.34
2023-04-18T00:09:39.069Z,102264.59
2023-04-18T00:09:51.675Z,102263.75
2023-04-18T00:10:05.692Z,102258.47
2023-04-18T00:10:18.335Z,102267.34
2023-04-18T00:10:31.155Z,102264.59
2023-04-18T00:10:43.854Z,102263.75
2023-04-18T00:10:56.511Z,102267.34
2023-04-18T00:11:09.213Z,102266.50
2023-04-18T00:11:22.816Z,102266.28
2023-04-18T00:11:35.489Z,102263.75
2023-04-18T00:11:48.467Z,102261.03
2023-04-18T00:12:03.032Z,102270.06
2023-04-18T00:12:15.949Z,102268.19
2023-04-18T00:12:28.683Z,102258.28
2023-04-18T00:12:41.436Z,102252.84
2023-04-18T00:12:55.189Z,102261.88
2023-04-18T00:13:07.977Z,102263.75
2023-04-18T00:13:20.559Z,102264.59
2023-04-18T00:13:33.285Z,102269.22
2023-04-18T00:13:47.505Z,102265.63
2023-04-18T00:14:00.153Z,102263.75
2023-04-18T00:14:13.696Z,102262.88
2023-04-18T00:14:29.023Z,102264.59
2023-04-18T00:14:41.585Z,102269.22
2023-04-18T00:14:54.307Z,102259.31
2023-04-18T00:15:09.472Z,102267.50
2023-04-18T00:15:22.180Z,102263.75
2023-04-18T00:15:35.501Z,102262.88
2023-04-18T00:15:48.133Z,102269.22
2023-04-18T00:16:01.861Z,102264.78
2023-04-18T00:16:15.167Z,102262.03
2023-04-18T00:16:28.966Z,102261.19
2023-04-18T00:16:42.416Z,102267.50
2023-04-18T00:16:55.067Z,102267.50
2023-04-18T00:17:08.843Z,102262.03
2023-04-18T00:17:22.312Z,102256.56
2023-04-18T00:17:35.849Z,102261.03
2023-04-18T00:17:49.753Z,102263.91
2023-04-18T00:18:06.012Z,102262.03
2023-04-18T00:18:18.754Z,102264.78
2023-04-18T00:18:31.775Z,102262.88
2023-04-18T00:18:44.333Z,102262.03
2023-04-18T00:18:57.490Z,102262.88
2023-04-18T00:19:10.287Z,102262.03
2023-04-18T00:19:23.813Z,102265.63
2023-04-18T00:19:36.873Z,102262.03
2023-04-18T00:19:49.809Z,102257.41
2023-04-18T00:20:07.440Z,102270.22
2023-04-18T00:20:20.268Z,102262.03
2023-04-18T00:20:32.997Z,102264.78
2023-04-18T00:20:47.093Z,102267.50
2023-04-18T00:21:02.050Z,102263.91
2023-04-18T00:21:14.658Z,102267.50
2023-04-18T00:21:27.275Z,102256.56
2023-04-18T00:21:44.907Z,102267.50
2023-04-18T00:21:58.099Z,102258.47
2023-04-18T00:22:11.382Z,102261.19
2023-04-18T00:22:25.655Z,102261.19
2023-04-18T00:22:42.665Z,102267.50
2023-04-18T00:22:56.090Z,102269.22
2023-04-18T00:23:08.666Z,102262.03
2023-04-18T00:23:22.313Z,102258.47
2023-04-18T00:23:35.256Z,102263.91
2023-04-18T00:23:48.855Z,102263.91
2023-04-18T00:24:01.553Z,102260.34
2023-04-18T00:24:14.393Z,102271.28
2023-04-18T00:24:27.115Z,102266.66
2023-04-18T00:24:40.380Z,102262.03
2023-04-18T00:24:53.261Z,102262.03
2023-04-18T00:25:07.707Z,102256.75
2023-04-18T00:25:20.294Z,102266.66
2023-04-18T00:25:32.960Z,102260.34
2023-04-18T00:25:45.537Z,102262.03
2023-04-18T00:25:58.132Z,102260.34
2023-04-18T00:26:11.724Z,102265.81
2023-04-18T00:26:24.307Z,102261.19
2023-04-18T00:26:36.872Z,102263.91
2023-04-18T00:26:49.492Z,102260.34
2023-04-18T00:27:02.044Z,102264.94
2023-04-18T00:27:14.640Z,102263.06
2023-04-18T00:27:27.516Z,102260.34
2023-04-18T00:27:40.126Z,102265.81
2023-04-18T00:27:53.730Z,102267.66
2023-04-18T00:28:06.358Z,102260.34
2023-04-18T00:28:18.959Z,102266.66
2023-04-18T00:28:31.540Z,102265.81
2023-04-18T00:28:44.316Z,102265.81
2023-04-18T00:28:57.024Z,102263.06
2023-04-18T00:29:10.575Z,102262.19
2023-04-18T00:29:23.273Z,102259.47
2023-04-18T00:29:35.853Z,102265.81
2023-04-18T00:29:48.916Z,102264.94
2023-04-18T00:30:01.542Z,102263.25
2023-04-18T00:30:14.827Z,102269.56
2023-04-18T00:30:27.477Z,102264.09
2023-04-18T00:30:41.138Z,102253.34
2023-04-18T00:30:53.832Z,102264.94
2023-04-18T00:31:07.123Z,102265.97
2023-04-18T00:31:19.753Z,102268.69
2023-04-18T00:31:32.633Z,102269.56
2023-04-18T00:31:45.270Z,102268.69
2023-04-18T00:31:57.904Z,102264.09
2023-04-18T00:32:11.449Z,102269.56
2023-04-18T00:32:24.014Z,102264.09
2023-04-18T00:32:36.693Z,102263.25
2023-04-18T00:32:49.458Z,102267.84
2023-04-18T00:33:02.095Z,102269.56
2023-04-18T00:33:14.718Z,102270.41
2023-04-18T00:33:27.296Z,102264.09
2023-04-18T00:33:39.996Z,102264.09
2023-04-18T00:33:53.583Z,102269.56
2023-04-18T00:34:06.232Z,102263.25
2023-04-18T00:34:18.808Z,102269.56
2023-04-18T00:34:31.392Z,102263.25
2023-04-18T00:34:44.432Z,102262.41
2023-04-18T00:34:56.992Z,102267.84
2023-04-18T00:35:09.753Z,102262.41
2023-04-18T00:35:22.382Z,102261.34
2023-04-18T00:35:34.950Z,102267.84
2023-04-18T00:35:48.614Z,102263.25
2023-04-18T00:36:02.543Z,102269.75
2023-04-18T00:36:15.104Z,102263.25
2023-04-18T00:36:27.874Z,102268.69
2023-04-18T00:36:40.544Z,102261.56
2023-04-18T00:36:53.126Z,102268.69
2023-04-18T00:37:05.695Z,102269.56
2023-04-18T00:37:19.220Z,102270.59
2023-04-18T00:37:31.809Z,102262.41
2023-04-18T00:37:44.452Z,102264.28
2023-04-18T00:37:56.999Z,102256.09
2023-04-18T00:38:09.620Z,102261.56
2023-04-18T00:38:22.465Z,102262.56
2023-04-18T00:38:35.564Z,102262.41
2023-04-18T00:38:48.230Z,102264.28
2023-04-18T00:39:02.015Z,102266.13
2023-04-18T00:39:14.622Z,102261.56
2023-04-18T00:39:27.201Z,102261.56
2023-04-18T00:39:39.796Z,102262.56
2023-04-18T00:39:54.027Z,102261.56
2023-04-18T00:40:07.604Z,102257.94
2023-04-18T00:40:20.311Z,102265.28
2023-04-18T00:40:34.063Z,102264.28
2023-04-18T00:40:46.617Z,102267.00
2023-04-18T00:40:59.155Z,102265.13
2023-04-18T00:41:11.752Z,102267.00
2023-04-18T00:41:27.358Z,102267.84
2023-04-18T00:41:39.934Z,102258.13
2023-04-18T00:41:52.483Z,102259.81
2023-04-18T00:42:06.467Z,102259.66
2023-04-18T00:42:19.019Z,102268.88
2023-04-18T00:42:31.920Z,102266.13
2023-04-18T00:42:44.544Z,102265.28
2023-04-18T00:42:57.131Z,102259.81
2023-04-18T00:43:09.698Z,102266.13
2023-04-18T00:43:23.479Z,102260.66
2023-04-18T00:43:37.174Z,102270.59
2023-04-18T00:43:50.746Z,102263.41
2023-04-18T00:44:03.370Z,102263.41
2023-04-18T00:44:16.288Z,102263.41
2023-04-18T00:44:28.947Z,102263.41
2023-04-18T00:44:41.486Z,102263.41
2023-04-18T00:44:54.051Z,102260.50
2023-04-18T00:45:07.396Z,102259.81
2023-04-18T00:45:20.562Z,102266.13
2023-04-18T00:45:33.137Z,102270.75
2023-04-18T00:45:47.017Z,102268.88
2023-04-18T00:46:01.646Z,102268.03
2023-04-18T00:46:14.305Z,102268.88
2023-04-18T00:46:26.989Z,102266.13
2023-04-18T00:46:39.629Z,102266.13
2023-04-18T00:46:52.217Z,102268.88
2023-04-18T00:47:05.992Z,102265.28
2023-04-18T00:47:19.525Z,102266.13
2023-04-18T00:47:32.094Z,102270.75
2023-04-18T00:47:44.683Z,102264.44
2023-04-18T00:47:57.311Z,102260.66
2023-04-18T00:48:10.881Z,102265.28
2023-04-18T00:48:23.995Z,102269.91
2023-04-18T00:48:39.051Z,102265.28
2023-04-18T00:48:52.730Z,102268.88
2023-04-18T00:49:05.883Z,102271.59
2023-04-18T00:49:18.530Z,102267.19
2023-04-18T00:49:31.558Z,102265.28
2023-04-18T00:49:44.372Z,102266.13
2023-04-18T00:49:57.261Z,102268.88
2023-04-18T00:50:11.031Z,102271.59
2023-04-18T00:50:25.389Z,102266.13
2023-04-18T00:50:38.196Z,102264.44
2023-04-18T00:50:50.757Z,102262.56
2023-04-18T00:51:05.557Z,102264.44
2023-04-18T00:51:18.339Z,102268.03
2023-04-18T00:51:31.055Z,102265.28
2023-04-18T00:51:43.943Z,102267.19
2023-04-18T00:51:57.846Z,102268.03
2023-04-18T00:52:11.093Z,102266.31
2023-04-18T00:52:27.225Z,102264.44
2023-04-18T00:52:40.589Z,102269.91
2023-04-18T00:52:54.018Z,102269.06
2023-04-18T00:53:06.757Z,102263.59
2023-04-18T00:53:19.909Z,102265.44
2023-04-18T00:53:33.553Z,102269.91
2023-04-18T00:53:46.518Z,102261.72
2023-04-18T00:53:59.108Z,102263.59
2023-04-18T00:54:13.498Z,102263.59
2023-04-18T00:54:27.419Z,102268.19
2023-04-18T00:54:40.847Z,102268.19
2023-04-18T00:54:54.632Z,102261.88
2023-04-18T00:55:09.886Z,102266.31
2023-04-18T00:55:24.066Z,102262.72
2023-04-18T00:55:37.937Z,102268.19
2023-04-18T00:55:50.635Z,102262.72
2023-04-18T00:56:03.719Z,102262.72
2023-04-18T00:56:16.553Z,102263.59
2023-04-18T00:56:29.731Z,102269.06
2023-04-18T00:56:43.665Z,102260.00
2023-04-18T00:56:56.852Z,102262.72
2023-04-18T00:57:09.758Z,102257.25
2023-04-18T00:57:22.740Z,102268.19
2023-04-18T00:57:36.076Z,102268.19
2023-04-18T00:57:48.709Z,102261.88
2023-04-18T00:58:01.647Z,102267.19
2023-04-18T00:58:14.460Z,102260.00
2023-04-18T00:58:28.537Z,102261.88
2023-04-18T00:58:41.497Z,102261.03
2023-04-18T00:58:54.485Z,102267.34
2023-04-18T00:59:09.598Z,102260.00
2023-04-18T00:59:22.335Z,102262.72
2023-04-18T00:59:35.110Z,102266.50
2023-04-18T00:59:47.891Z,102267.34
2023-04-18T01:00:01.690Z,102262.72
2023-04-18T01:00:16.219Z,102261.03
2023-04-18T01:00:28.920Z,102262.72
2023-04-18T01:00:42.688Z,102266.50
2023-04-18T01:00:55.564Z,102270.06
2023-04-18T01:01:09.119Z,102262.72
2023-04-18T01:01:22.239Z,102261.03
2023-04-18T01:01:34.885Z,102265.66
2023-04-18T01:01:48.694Z,102268.19
2023-04-18T01:02:02.217Z,102267.34
2023-04-18T01:02:15.005Z,102262.72
2023-04-18T01:02:30.601Z,102267.34
2023-04-18T01:02:44.172Z,102272.81
2023-04-18T01:02:57.647Z,102264.59
2023-04-18T01:03:10.823Z,102262.03
2023-04-18T01:03:25.669Z,102266.50
2023-04-18T01:03:39.631Z,102266.50
2023-04-18T01:03:52.525Z,102263.75
2023-04-18T01:04:05.613Z,102265.66
2023-04-18T01:04:18.551Z,102262.03
2023-04-18T01:04:32.172Z,102266.66
2023-04-18T01:04:46.253Z,102259.31
2023-04-18T01:04:59.509Z,102269.22
2023-04-18T01:05:12.163Z,102269.38
2023-04-18T01:05:24.908Z,102265.66
2023-04-18T01:05:38.394Z,102264.78
2023-04-18T01:05:51.064Z,102267.50
2023-04-18T01:06:05.320Z,102269.22
2023-04-18T01:06:19.172Z,102267.50
2023-04-18T01:06:32.031Z,102267.50
2023-04-18T01:06:45.674Z,102267.50
2023-04-18T01:06:58.694Z,102269.22
2023-04-18T01:07:11.950Z,102271.97
2023-04-18T01:07:25.376Z,102267.50
2023-04-18T01:07:41.713Z,102270.22
2023-04-18T01:07:58.783Z,102271.09
2023-04-18T01:08:11.912Z,102268.53
2023-04-18T01:08:24.952Z,102269.38
2023-04-18T01:08:37.654Z,102270.22
2023-04-18T01:08:50.373Z,102272.97
2023-04-18T01:09:05.619Z,102267.50
2023-04-18T01:09:18.672Z,102270.22
2023-04-18T01:09:31.301Z,102272.13
2023-04-18T01:09:44.703Z,102272.97
2023-04-18T01:09:58.375Z,102270.22
2023-04-18T01:10:11.081Z,102270.22
2023-04-18T01:10:23.659Z,102267.50
2023-04-18T01:10:37.999Z,102270.22
2023-04-18T01:10:50.743Z,102274.84
2023-04-18T01:11:03.384Z,102270.22
2023-04-18T01:11:15.981Z,102268.53
2023-04-18T01:11:28.661Z,102272.97
2023-04-18T01:11:41.302Z,102265.81
2023-04-18T01:11:53.855Z,102270.22
2023-04-18T01:12:07.890Z,102272.13
2023-04-18T01:12:20.504Z,102270.22
2023-04-18T01:12:33.114Z,102277.59
2023-04-18T01:12:45.868Z,102270.22
2023-04-18T01:13:11.793Z,102274.84
2023-04-18T01:13:24.383Z,102274.00
2023-04-18T01:13:36.972Z,102279.47
2023-04-18T01:14:00.596Z,102274.00
2023-04-18T01:14:13.393Z,102277.59
2023-04-18T01:14:26.069Z,102274.84
2023-04-18T01:14:41.677Z,102276.06
2023-04-18T01:14:54.444Z,102276.72
2023-04-18T01:15:08.390Z,102274.00
2023-04-18T01:15:21.003Z,102268.53
2023-04-18T01:15:33.583Z,102274.84
2023-04-18T01:15:48.638Z,102273.16
2023-04-18T01:16:01.675Z,102280.31
2023-04-18T01:16:14.315Z,102268.53
2023-04-18T01:16:27.827Z,102276.72
2023-04-18T01:16:40.715Z,102282.19
2023-04-18T01:16:53.320Z,102280.31
2023-04-18T01:17:08.072Z,102277.75
2023-04-18T01:17:23.441Z,102279.47
2023-04-18T01:17:36.172Z,102275.88
2023-04-18T01:17:48.839Z,102277.75
2023-04-18T01:18:02.281Z,102277.75
2023-04-18T01:18:17.024Z,102272.28
2023-04-18T01:18:31.469Z,102278.63
2023-04-18T01:18:44.053Z,102276.72
2023-04-18T01:18:57.061Z,102281.34
2023-04-18T01:19:09.771Z,102277.75
2023-04-18T01:19:23.183Z,102276.06
2023-04-18T01:19:36.080Z,102277.75
2023-04-18T01:19:49.073Z,102281.50
2023-04-18T01:20:02.059Z,102281.50
2023-04-18T01:20:16.866Z,102278.78
2023-04-18T01:20:29.736Z,102285.09
2023-04-18T01:20:45.817Z,102276.91
2023-04-18T01:21:00.626Z,102281.50
2023-04-18T01:21:14.808Z,102278.78
2023-04-18T01:21:30.347Z,102284.25
2023-04-18T01:21:44.485Z,102278.78
2023-04-18T01:21:57.202Z,102283.19
2023-04-18T01:22:11.284Z,102277.94
2023-04-18T01:22:24.066Z,102277.94
2023-04-18T01:22:36.631Z,102278.78
2023-04-18T01:22:49.275Z,102280.66
2023-04-18T01:23:01.852Z,102279.81
2023-04-18T01:23:16.062Z,102275.22
2023-04-18T01:23:28.911Z,102277.09
2023-04-18T01:23:41.791Z,102279.81
2023-04-18T01:23:54.483Z,102277.94
2023-04-18T01:24:10.344Z,102277.09
2023-04-18T01:24:25.855Z,102283.41
2023-04-18T01:24:38.510Z,102279.81
2023-04-18T01:24:52.038Z,102272.63
2023-04-18T01:25:08.942Z,102273.47
2023-04-18T01:25:21.499Z,102274.34
2023-04-18T01:25:34.249Z,102278.94
2023-04-18T01:25:49.229Z,102279.81
2023-04-18T01:26:01.834Z,102282.56
2023-04-18T01:26:15.430Z,102275.38
2023-04-18T01:26:28.478Z,102273.47
2023-04-18T01:26:43.636Z,102279.81
2023-04-18T01:26:57.225Z,102272.63
2023-04-18T01:27:11.487Z,102278.09
2023-04-18T01:27:24.035Z,102275.38
2023-04-18T01:27:37.699Z,102277.25
2023-04-18T01:27:51.650Z,102278.09
2023-04-18T01:28:04.852Z,102276.22
2023-04-18T01:28:18.354Z,102277.25
2023-04-18T01:28:30.945Z,102276.22
2023-04-18T01:28:43.571Z,102278.94
2023-04-18T01:28:56.085Z,102277.25
2023-04-18T01:29:09.712Z,102285.44
2023-04-18T01:29:22.289Z,102282.72
2023-04-18T01:29:35.261Z,102279.13
2023-04-18T01:29:48.816Z,102282.88
2023-04-18T01:30:01.414Z,102278.09
2023-04-18T01:30:14.194Z,102270.94
2023-04-18T01:30:26.856Z,102284.59
2023-04-18T01:30:41.020Z,102281.88
2023-04-18T01:30:54.548Z,102276.41
2023-04-18T01:31:07.704Z,102279.13
2023-04-18T01:31:20.363Z,102279.97
2023-04-18T01:31:34.843Z,102276.41
2023-04-18T01:31:47.504Z,102281.88
2023-04-18T01:32:02.517Z,102279.13
2023-04-18T01:32:17.615Z,102282.88
2023-04-18T01:32:30.286Z,102274.69
2023-04-18T01:32:45.053Z,102276.41
2023-04-18T01:32:57.670Z,102276.41
2023-04-18T01:33:10.352Z,102287.31
2023-04-18T01:33:23.889Z,102271.78
2023-04-18T01:33:36.500Z,102276.41
2023-04-18T01:33:49.064Z,102275.53
2023-04-18T01:34:01.697Z,102286.28
2023-04-18T01:34:14.707Z,102273.69
2023-04-18T01:34:27.849Z,102271.78
2023-04-18T01:34:40.503Z,102279.97
2023-04-18T01:34:53.053Z,102281.88
2023-04-18T01:35:07.453Z,102274.53
2023-04-18T01:35:20.171Z,102273.69
2023-04-18T01:35:33.500Z,102276.41
2023-04-18T01:35:46.327Z,102276.41
2023-04-18T01:35:58.924Z,102271.94
2023-04-18T01:36:11.489Z,102265.47
2023-04-18T01:36:24.027Z,102279.13
2023-04-18T01:36:38.554Z,102270.06
2023-04-18T01:36:51.281Z,102271.94
2023-04-18T01:37:03.813Z,102282.88
2023-04-18T01:37:16.380Z,102282.88
2023-04-18T01:37:28.940Z,102284.59
2023-04-18T01:37:41.526Z,102270.94
2023-04-18T01:37:54.431Z,102272.81
2023-04-18T01:38:07.001Z,102280.16
2023-04-18T01:38:20.806Z,102271.94
2023-04-18T01:38:33.397Z,102271.94
2023-04-18T01:38:45.972Z,102274.69
2023-04-18T01:38:58.866Z,102271.94
2023-04-18T01:39:13.480Z,102271.94
2023-04-18T01:39:26.091Z,102271.94
2023-04-18T01:39:38.714Z,102274.69
2023-04-18T01:39:51.330Z,102271.94
2023-04-18T01:40:06.041Z,102274.69
2023-04-18T01:40:18.740Z,102274.69
2023-04-18T01:40:31.509Z,102268.53
2023-04-18T01:40:44.221Z,102278.25
2023-04-18T01:40:57.033Z,102273.00
2023-04-18T01:41:09.622Z,102273.84
2023-04-18T01:41:22.198Z,102273.84
2023-04-18T01:41:35.834Z,102280.16
2023-04-18T01:41:48.413Z,102276.56
2023-04-18T01:42:02.076Z,102281.19
2023-04-18T01:42:14.756Z,102273.00
2023-04-18T01:42:27.344Z,102269.38
2023-04-18T01:42:40.035Z,102281.19
2023-04-18T01:42:52.619Z,102283.91
2023-04-18T01:43:06.178Z,102278.44
2023-04-18T01:43:18.745Z,102272.13
2023-04-18T01:43:31.483Z,102274.00
2023-04-18T01:43:44.053Z,102268.53
2023-04-18T01:43:56.600Z,102271.25
2023-04-18T01:44:09.196Z,102280.31
2023-04-18T01:44:21.812Z,102283.91
2023-04-18T01:44:34.455Z,102271.25
2023-04-18T01:44:48.185Z,102273.00
2023-04-18T01:45:00.963Z,102273.00
2023-04-18T01:45:13.670Z,102280.31
2023-04-18T01:45:26.261Z,102270.44
2023-04-18T01:45:39.047Z,102280.31
2023-04-18T01:45:51.866Z,102281.19
2023-04-18T01:46:04.420Z,102278.44
2023-04-18T01:46:18.113Z,102272.13
2023-04-18T01:46:31.352Z,102274.00
2023-04-18T01:46:43.999Z,102280.31
2023-04-18T01:46:56.615Z,102279.47
2023-04-18T01:47:09.262Z,102271.25
2023-04-18T01:47:21.851Z,102274.00
2023-04-18T01:47:34.518Z,102284.91
2023-04-18T01:47:48.285Z,102271.25
2023-04-18T01:48:00.955Z,102286.81
2023-04-18T01:48:13.648Z,102280.50
2023-04-18T01:48:26.217Z,102271.25
2023-04-18T01:48:38.885Z,102277.78
2023-04-18T01:48:51.450Z,102268.69
2023-04-18T01:49:05.360Z,102266.84
2023-04-18T01:49:17.887Z,102280.50
2023-04-18T01:49:31.794Z,102283.22
2023-04-18T01:49:48.174Z,102280.50
2023-04-18T01:50:01.288Z,102280.50
2023-04-18T01:50:14.661Z,102274.00
2023-04-18T01:50:27.244Z,102271.25
2023-04-18T01:50:39.848Z,102274.16
2023-04-18T01:50:52.446Z,102278.78
2023-04-18T01:51:05.540Z,102276.72
2023-04-18T01:51:19.205Z,102277.78
2023-04-18T01:51:31.774Z,102263.25
2023-04-18T01:51:44.417Z,102272.31
2023-04-18T01:51:56.975Z,102268.69
2023-04-18T01:52:09.545Z,102268.69
2023-04-18T01:52:22.138Z,102274.34
2023-04-18T01:52:34.821Z,102274.34
2023-04-18T01:52:47.382Z,102276.03
2023-04-18T01:53:00.955Z,102266.84
2023-04-18T01:53:13.681Z,102268.69
2023-04-18T01:53:26.520Z,102278.78
2023-04-18T01:53:39.095Z,102277.09
2023-04-18T01:53:51.870Z,102277.94
2023-04-18T01:54:04.506Z,102267.00
2023-04-18T01:54:19.548Z,102277.09
2023-04-18T01:54:32.141Z,102275.19
2023-04-18T01:54:44.805Z,102276.25
2023-04-18T01:54:57.554Z,102275.19
2023-04-18T01:55:10.842Z,102276.03
2023-04-18T01:55:23.464Z,102268.91
2023-04-18T01:55:36.065Z,102274.34
2023-04-18T01:55:49.906Z,102275.19
2023-04-18T01:56:03.481Z,102271.63
2023-04-18T01:56:16.077Z,102277.09
2023-04-18T01:56:28.651Z,102274.34
2023-04-18T01:56:41.346Z,102277.09
2023-04-18T01:56:53.948Z,102271.63
2023-04-18T01:57:06.944Z,102267.00
2023-04-18T01:57:19.521Z,102264.44
2023-04-18T01:57:34.143Z,102270.78
2023-04-18T01:57:46.983Z,102277.94
2023-04-18T01:57:59.626Z,102277.09
2023-04-18T01:58:12.212Z,102274.34
2023-04-18T01:58:25.349Z,102273.66
2023-04-18T01:58:37.997Z,102272.47
2023-04-18T01:58:51.610Z,102276.25
2023-04-18T01:59:04.289Z,102275.38
2023-04-18T01:59:16.897Z,102282.53
2023-04-18T01:59:29.463Z,102272.63
2023-04-18T01:59:42.089Z,102268.91
2023-04-18T01:59:54.720Z,102277.94
2023-04-18T02:00:08.342Z,102267.16
2023-04-18T02:00:21.634Z,102271.78
2023-04-18T02:00:35.384Z,102275.38
2023-04-18T02:00:48.469Z,102274.50
2023-04-18T02:01:01.603Z,102274.50
2023-04-18T02:01:14.294Z,102265.31
2023-04-18T02:01:27.119Z,102269.91
2023-04-18T02:01:39.796Z,102272.63
2023-04-18T02:01:53.741Z,102275.38
2023-04-18T02:02:06.420Z,102269.91
2023-04-18T02:02:19.247Z,102269.06
2023-04-18T02:02:32.419Z,102274.50
2023-04-18T02:02:45.369Z,102272.63
2023-04-18T02:02:58.756Z,102272.63
2023-04-18T02:03:11.517Z,102270.78
2023-04-18T02:03:25.459Z,102272.63
2023-04-18T02:03:38.275Z,102269.91
2023-04-18T02:03:51.139Z,102269.91
2023-04-18T02:04:03.932Z,102271.78
2023-04-18T02:04:16.697Z,102273.50
2023-04-18T02:04:29.682Z,102267.16
2023-04-18T02:04:42.325Z,102269.06
2023-04-18T02:04:55.966Z,102274.34
2023-04-18T02:05:09.186Z,102275.38
2023-04-18T02:05:22.065Z,102275.38
2023-04-18T02:05:36.474Z,102264.44
2023-04-18T02:05:49.116Z,102267.16
2023-04-18T02:06:01.979Z,102276.25
2023-04-18T02:06:15.549Z,102272.63
2023-04-18T02:06:28.114Z,102267.16
2023-04-18T02:06:40.743Z,102266.31
2023-04-18T02:06:53.358Z,102263.59
2023-04-18T02:07:05.992Z,102268.22
2023-04-18T02:07:18.604Z,102269.06
2023-04-18T02:07:31.267Z,102273.50
2023-04-18T02:07:45.560Z,102278.09
2023-04-18T02:07:58.151Z,102271.94
2023-04-18T02:08:11.893Z,102268.22
2023-04-18T02:08:24.495Z,102273.66
2023-04-18T02:08:37.234Z,102279.13
2023-04-18T02:08:49.797Z,102270.94
2023-04-18T02:09:02.396Z,102271.94
2023-04-18T02:09:16.289Z,102274.50
2023-04-18T02:09:30.349Z,102272.81
2023-04-18T02:09:42.940Z,102272.81
2023-04-18T02:09:55.551Z,102272.81
2023-04-18T02:10:08.981Z,102273.66
2023-04-18T02:10:21.812Z,102262.75
2023-04-18T02:10:34.405Z,102270.94
2023-04-18T02:10:47.088Z,102273.66
2023-04-18T02:11:01.378Z,102265.47
2023-04-18T02:11:14.047Z,102267.16
2023-04-18T02:11:26.654Z,102270.94
2023-04-18T02:11:39.263Z,102270.94
2023-04-18T02:11:52.131Z,102262.75
2023-04-18T02:12:05.047Z,102271.09
2023-04-18T02:12:17.626Z,102274.50
2023-04-18T02:12:32.753Z,102263.75
2023-04-18T02:12:45.588Z,102261.03
2023-04-18T02:12:58.287Z,102262.75
2023-04-18T02:13:11.182Z,102261.03
2023-04-18T02:13:23.766Z,102265.47
2023-04-18T02:13:36.357Z,102265.47
2023-04-18T02:13:49.109Z,102261.91
2023-04-18T02:14:02.689Z,102270.09
2023-04-18T02:14:15.500Z,102265.47
2023-04-18T02:14:32.124Z,102264.63
2023-04-18T02:14:44.686Z,102273.66
2023-04-18T02:14:57.250Z,102265.47
2023-04-18T02:15:10.858Z,102258.28
2023-04-18T02:15:24.362Z,102270.09
2023-04-18T02:15:38.137Z,102260.03
2023-04-18T02:15:51.015Z,102259.16
2023-04-18T02:16:03.689Z,102263.75
2023-04-18T02:16:16.441Z,102264.78
2023-04-18T02:16:29.256Z,102262.91
2023-04-18T02:16:41.923Z,102265.63
2023-04-18T02:16:54.589Z,102262.06
2023-04-18T02:17:08.217Z,102266.47
2023-04-18T02:17:23.324Z,102265.63
2023-04-18T02:17:36.718Z,102262.06
2023-04-18T02:17:50.541Z,102271.09
2023-04-18T02:18:03.431Z,102270.25
2023-04-18T02:18:17.471Z,102267.53
2023-04-18T02:18:30.656Z,102265.63
2023-04-18T02:18:44.096Z,102271.94
2023-04-18T02:18:56.685Z,102268.38
2023-04-18T02:19:09.285Z,102259.34
2023-04-18T02:19:22.513Z,102267.53
2023-04-18T02:19:35.634Z,102263.94
2023-04-18T02:19:49.258Z,102262.91
2023-04-18T02:20:01.942Z,102255.06
2023-04-18T02:20:14.798Z,102269.41
2023-04-18T02:20:28.658Z,102263.94
2023-04-18T02:20:41.389Z,102259.34
2023-04-18T02:20:54.008Z,102266.69
2023-04-18T02:21:06.804Z,102270.25
2023-04-18T02:21:21.861Z,102264.78
2023-04-18T02:21:34.763Z,102262.06
2023-04-18T02:21:47.344Z,102252.16
2023-04-18T02:22:00.292Z,102264.78
2023-04-18T02:22:12.949Z,102265.63
2023-04-18T02:22:25.552Z,102259.34
2023-04-18T02:22:38.373Z,102265.81
2023-04-18T02:22:51.958Z,102258.50
2023-04-18T02:23:04.593Z,102257.63
2023-04-18T02:23:17.489Z,102258.50
2023-04-18T02:23:30.067Z,102258.50
2023-04-18T02:23:42.738Z,102254.88
2023-04-18T02:23:55.305Z,102253.03
2023-04-18T02:24:07.899Z,102262.06
2023-04-18T02:24:20.564Z,102270.25
2023-04-18T02:24:35.480Z,102262.06
2023-04-18T02:24:48.015Z,102251.13
2023-04-18T02:25:00.654Z,102263.94
2023-04-18T02:25:13.332Z,102254.88
2023-04-18T02:25:27.787Z,102249.63
2023-04-18T02:25:40.397Z,102253.88
2023-04-18T02:25:54.591Z,102261.38
2023-04-18T02:26:07.188Z,102257.63
2023-04-18T02:26:19.743Z,102260.34
2023-04-18T02:26:32.308Z,102266.69
2023-04-18T02:26:44.874Z,102266.69
2023-04-18T02:26:57.715Z,102260.34
2023-04-18T02:27:10.998Z,102263.06
2023-04-18T02:27:24.575Z,102254.88
2023-04-18T02:27:37.141Z,102253.88
2023-04-18T02:27:49.722Z,102259.34
2023-04-18T02:28:02.321Z,102252.16
2023-04-18T02:28:14.874Z,102257.63
2023-04-18T02:28:27.559Z,102257.63
2023-04-18T02:28:40.212Z,102257.63
2023-04-18T02:28:52.844Z,102257.63
2023-04-18T02:29:05.588Z,102261.22
2023-04-18T02:29:19.439Z,102266.84
2023-04-18T02:29:32.002Z,102254.88
2023-04-18T02:29:44.570Z,102260.34
2023-04-18T02:29:57.168Z,102257.63
2023-04-18T02:30:10.413Z,102259.66
2023-04-18T02:30:23.517Z,102256.75
2023-04-18T02:30:36.396Z,102257.63
2023-04-18T02:30:49.256Z,102255.91
2023-04-18T02:31:02.832Z,102250.47
2023-04-18T02:31:15.836Z,102254.19